Tiempo atmosférico en la estación meteorológica de Jávea/ Xàbia, Alacant/Alicante (15 m.)



Fecha
DESCASC
Temp. máxima en grados centígrados (hora)
DESCASC
Temp. mínima en grados centígrados (hora)
DESCASC
Temp. media en grados centígrados
DESCASC
Racha de viento máxima en m/sg (hora)
DESCASC
Velocidad máxima media en intervalos de 10 minutos(hora)
DESCASC
Precipitaciones diarias en mm
DESCASC
Precipitaciones de 00:00 a 06:00 en mm
DESCASC
Precipitaciones de 06:00 a 12:00 en mm
DESCASC
Precipitaciones de 12:00 a 18:00 en mm
DESCASC
Precipitaciones de 18:00 a 24:00 en mm
DESCASC
20-09-2020 31.1 (12:50) 19.3 (02:10) 25.2 8.61 (11:10) 4.72 (10:40) 0 0 0 0 0
19-09-2020 30.4 (16:50) 18.6 (06:50) 24.5 6.94 (15:00) 3.61 (17:40) 0 0 0 0 0
18-09-2020 26.6 (17:30) 20.6 (23:30) 23.6 13.33 (08:30) 5 (08:30) 0.8 0 0.6 0.2 0
17-09-2020 29.7 (15:40) 20.3 (00:00) 25 7.22 (17:10) 3.33 (15:30) 0 0 0 0 0
16-09-2020 31.5 (16:10) 18.1 (00:00) 24.8 6.94 (15:00) 3.33 (13:50) 0 0 0 0 0
15-09-2020 30.1 (13:20) 20.9 (00:00) 25.5 8.06 (11:10) 5 (11:50) 0 0 0 0 0
14-09-2020 29.8 (14:00) 18.3 (00:00) 24 6.11 (10:50) 3.61 (10:50) 0 0 0 0 0
13-09-2020 31.2 (15:40) 18.1 (00:00) 24.7 8.61 (13:00) 3.61 (14:00) 0 0 0 0 0
12-09-2020 32.1 (16:50) 17.5 (00:00) 24.8 7.5 (15:30) 4.17 (15:40) 0 0 0 0 0
11-09-2020 32.5 (14:50) 16.4 (00:00) 24.4 11.67 (17:40) 6.11 (16:50) 0 0 0 0 0
10-09-2020 29.3 (13:30) 18.5 (00:00) 23.9 7.5 (14:30) 4.72 (13:50) 0 0 0 0 0
09-09-2020 28.5 (15:20) 18.8 (00:00) 23.6 10.83 (12:00) 6.11 (11:50) 0 0 0 0 0
08-09-2020 27.5 (15:30) 20.6 (00:00) 24.1 11.11 (12:10) 6.94 (05:50) 0.2 0 0 0.2 0
07-09-2020 26.3 (10:30) 18.2 (07:00) 22.3 14.72 (15:00) 8.61 (15:40) 5 0 0.2 4.8 0
06-09-2020 29.5 (12:00) 19 (00:00) 24.3 6.67 (18:00) 3.33 (15:10) 0 0 0 0 0
05-09-2020 29.4 (13:20) 18.8 (00:00) 24.1 6.11 (14:50) 3.61 (16:00) 0 0 0 0 0
04-09-2020 29.5 (13:20) 17.6 (00:00) 23.6 6.11 (17:30) 3.06 (15:20) 0 0 0 0 0
03-09-2020 31.1 (15:10) 18 (00:00) 24.6 7.78 (16:50) 4.17 (16:20) 0 0 0 0 0
02-09-2020 29.6 (14:00) 18.1 (00:00) 23.9 6.39 (14:40) 3.61 (16:30) 0 0 0 0 0
01-09-2020 29 (11:40) 16.3 (00:00) 22.6 7.22 (16:40) 3.89 (16:20) -- -- 0 0 0
31-08-2020 28.3 (17:50) 17.4 (00:00) 22.8 8.89 (08:30) 5.28 (08:30) -- -- -- -- --
30-08-2020 26.2 (15:20) 17.7 (00:00) 22 10.56 (05:10) 5.56 (05:50) -- -- -- -- --
29-08-2020 26.7 (09:50) 18.2 (00:00) 22.5 16.11 (17:50) 9.17 (17:50) -- -- -- -- --
28-08-2020 33.2 (15:30) 21.4 (00:00) 27.3 11.94 (16:00) 6.67 (17:40) -- -- -- -- --
27-08-2020 34.6 (12:50) 20.2 (00:00) 27.4 11.11 (16:20) 6.11 (16:30) 0 0 0 0 0
26-08-2020 34.9 (14:50) 20 (00:00) 27.5 7.5 (16:30) 4.44 (16:40) 0 0 0 0 0
25-08-2020 34.4 (14:50) 21.3 (00:00) 27.9 10 (17:00) 4.72 (14:10) 0 0 0 0 0
24-08-2020 33.6 (15:40) 22.2 (00:00) 27.9 8.61 (14:00) 4.72 (15:10) 0 0 0 0 0
23-08-2020 32.1 (14:40) 25.1 (00:00) 28.6 8.06 (15:20) 4.17 (15:30) 0 0 0 0 0
22-08-2020 33.7 (15:00) 22.9 (00:00) 28.3 9.17 (07:50) 5.28 (11:50) 0 0 0 0 0

Gráficas

Temp. máximas Temp. mínimas Temp. medias Precipitaciones Rachas de viento máximas Velocidades máximas media en intervalos de 10 minutos

Datos horarios

Fecha y hora oficial Temperatura (ºC) Velocidad del viento (km/h) Dirección del viento Racha (km/h) Dirección de racha Precipitación (mm) Presión (hPa) Tendencia (hPa) Humedad (%)
2020-09-20 23:00:00 23 8 Sudoeste 22 Sudoeste 0 1015 1.1 58
2020-09-20 22:00:00 23.9 14 Sudoeste 21 Sudoeste 0 1015 1.2 60
2020-09-20 21:00:00 24.2 6 Oeste 25 Sudoeste 0 1014.4 0.7 62
2020-09-20 20:00:00 25.1 12 Sudoeste 28 Sudoeste 0 1013.9 0.1 58
2020-09-20 19:00:00 27.2 12 Sur 26 Sudoeste 0 1013.8 -0.4 47
2020-09-20 18:00:00 29.7 9 Sur 23 Sur 0 1013.7 -0.9 39
2020-09-20 17:00:00 30 10 Sur 20 Sur 0 1013.8 -1.3 37
2020-09-20 16:00:00 30.2 8 Sudeste 17 Este 0 1014.2 -1.1 32
2020-09-20 15:00:00 27.5 5 Sudeste 20 Nordeste 0 1014.6 -1.1 46
2020-09-20 14:00:00 27.8 13 Este 28 Nordeste 0 1015.1 -0.6 47
2020-09-20 13:00:00 30.6 8 Oeste 22 Oeste 0 1015.3 -0.3 28
2020-09-20 12:00:00 29.6 13 Oeste 31 Oeste 0 1015.7 -- 31
2020-09-20 11:00:00 28 17 Oeste 30 Oeste 0 1015.7 -- 33
2020-09-20 10:00:00 26.5 14 Oeste 27 Oeste 0 1015.6 -- 38
2020-09-20 09:00:00 24.4 10 Oeste 24 Oeste 0 1015.3 -- 44
2020-09-20 08:00:00 22.7 11 Oeste 23 Oeste 0 1015.1 -- 45
2020-09-20 07:00:00 22.9 11 Noroeste 26 Oeste 0 1014.9 -- 48
2020-09-20 06:00:00 21.2 3 Norte 19 Oeste 0 1014.6 -- 57
2020-09-20 05:00:00 21.2 8 Oeste 18 Oeste 0 1014.6 -- 54
2020-09-20 04:00:00 20 5 Sudeste 11 Sudoeste 0 1014.9 -- 66
2020-09-20 03:00:00 19.7 5 Oeste 16 Sudoeste 0 1015.1 -- 65
2020-09-20 02:00:00 19.7 6 Sudoeste 13 Sudoeste 0 1015.2 -- 68
2020-09-20 01:00:00 19.9 10 Sudoeste 13 Sudoeste 0 1015.3 -- 70
2020-09-20 00:00:00 20.8 8 Oeste 15 Sudoeste 0 1015.3 -- 70
2020-09-19 23:00:00 21.7 6 Oeste 12 Oeste 0 1015.1 -- 69
2020-09-19 22:00:00 22.6 9 Oeste 15 Oeste 0 1014.5 -- 65
2020-09-19 21:00:00 24 5 Oeste 18 Sudoeste 0 1013.5 -- 59
2020-09-19 20:00:00 25.3 9 Sudoeste 23 Sudoeste 0 1013 -- 56
2020-09-19 19:00:00 27.3 11 Sur 24 Sur 0 1012.7 -- 52
2020-09-19 18:00:00 29.6 11 Sur 22 Sur 0 1012.6 -- 38
2020-09-19 17:00:00 29.7 9 Este 24 Este 0 1012.8 -- 41
2020-09-19 16:00:00 28.9 10 Este 22 Este 0 1013.2 -- 41
2020-09-19 15:00:00 28.3 12 Este 25 Nordeste 0 1013.6 -- 49
2020-09-19 14:00:00 27.5 8 Nordeste 21 Nordeste 0 1014.4 -- 52
2020-09-19 13:00:00 28.4 8 Este 19 Nordeste 0 1014.9 -- 48
2020-09-19 12:00:00 28.9 8 Este 15 Este 0 1015.1 -- 42
2020-09-19 11:00:00 27.2 8 Este 15 Este 0 1015.2 -- 54
2020-09-19 10:00:00 24.2 3 Sudoeste 11 Noroeste 0 1014.8 -- 63
2020-09-19 09:00:00 20.9 5 Oeste 17 Noroeste 0 1014.4 -- 76
2020-09-19 08:00:00 19.2 9 Oeste 16 Oeste 0 1013.9 -- 82
2020-09-19 07:00:00 19.1 9 Oeste 13 Oeste 0 1013.4 -- 83
2020-09-19 06:00:00 19.7 8 Oeste 13 Oeste 0 1013.2 -- 79
2020-09-19 05:00:00 20.1 6 Oeste 14 Sudoeste 0 1013.1 -- 79
2020-09-19 04:00:00 19.5 6 Oeste 12 Oeste 0 1013.1 -- 80
2020-09-19 03:00:00 19.4 7 Sudoeste 12 Oeste 0 1013.5 -- 79
2020-09-19 02:00:00 19.4 5 Oeste 17 Sudoeste 0 1013.9 -- 79
2020-09-19 01:00:00 19.7 7 Sudoeste 11 Oeste 0 1014.8 -- 79
2020-09-19 00:00:00 20.6 7 Sudoeste 14 Sudoeste 0 1015.5 -- 74
2020-09-18 23:00:00 21.5 4 Nordeste 20 Noroeste 0 1015.4 -- 71
2020-09-18 22:00:00 22.3 7 Noroeste 14 Norte 0 1015 -- 70
2020-09-18 21:00:00 22.4 7 Sudoeste 25 Sudoeste 0 1013.6 -- 65
2020-09-18 20:00:00 23.8 10 Sur 22 Sur 0 1012.9 -- 58
2020-09-18 19:00:00 25.4 8 Sudoeste 26 Sur 0 1013 -- 56
2020-09-18 18:00:00 26.4 14 Sur 27 Sur 0 1013.6 -- 55
2020-09-18 17:00:00 24.8 14 Sur 30 Sur 0.2 1013.6 -- 63
2020-09-18 16:00:00 23.7 11 Sur 27 Sudoeste 0 1015.2 -- 69
2020-09-18 15:00:00 25.1 9 Sur 18 Sur 0 1015.7 -- 61
2020-09-18 14:00:00 24.4 4 Sudeste 13 Sudoeste 0 1015.7 -- 69
2020-09-18 13:00:00 24.4 6 Sur 14 Sur 0 1015.6 -- 66
2020-09-18 12:00:00 23.4 4 Sur 6 Sur 0 1015.6 -- 68
2020-09-18 11:00:00 21.7 3 Nordeste 14 Sudeste 0 1015.5 -- 76
2020-09-18 10:00:00 21 8 Oeste 22 Sudoeste 0.6 1015.5 -- 74
2020-09-18 09:00:00 22.9 11 Oeste 48 Noroeste 0 1014.8 -- 58
2020-09-18 08:00:00 22.3 10 Noroeste 23 Noroeste 0 1014.5 -- 61
2020-09-18 07:00:00 21.4 7 Oeste 14 Sudoeste 0 1014.5 -- 85
2020-09-18 06:00:00 21.3 9 Sudoeste 12 Sudoeste 0 1014 -- 89
2020-09-18 05:00:00 21.7 8 Oeste 12 Sudoeste 0 1013.2 -- 92
2020-09-18 04:00:00 21.9 6 Sudoeste 10 Oeste 0 1013.2 -- 92
2020-09-18 03:00:00 22 4 Sur 9 Sudoeste 0 1013.3 -- 91
2020-09-18 02:00:00 22.2 7 Sudoeste 9 Oeste 0 1013.8 -- 91
2020-09-18 01:00:00 22.5 3 Oeste 5 Oeste 0 1013.6 -- 88
2020-09-18 00:00:00 23.1 2 Sudoeste 9 Sur 0 1013.8 -- 86
2020-09-17 23:00:00 23.3 4 Sur 10 Sur 0 1013.9 -- 86
2020-09-17 22:00:00 23.7 6 Sudoeste 8 Sudoeste 0 1014 -- 83
2020-09-17 21:00:00 24.7 3 Sur 14 Sur 0 1013.3 -- 78
2020-09-17 20:00:00 25.2 6 Sur 13 Sur 0 1013.2 -- 73
2020-09-17 19:00:00 26.7 7 Sur 23 Sur 0 1013.3 -- 67
2020-09-17 18:00:00 28.9 12 Sur 26 Sur 0 1013.2 -- 57
2020-09-17 17:00:00 29.3 10 Sur 21 Sur 0 1013.6 -- 57
2020-09-17 16:00:00 28.6 12 Sur 26 Sur 0 1013.9 -- 58
2020-09-17 15:00:00 27.5 10 Sur 21 Sur 0 1014.5 -- 66
2020-09-17 14:00:00 26.6 7 Sur 15 Sur 0 1015.5 -- 70
2020-09-17 13:00:00 26.6 3 Sudeste 8 Sudeste 0 1015.6 -- 72
2020-09-17 12:00:00 25.6 0 Calma 8 Sudoeste 0 1015.8 -- 66
2020-09-17 11:00:00 23.8 5 Sudoeste 13 Noroeste 0 1015.8 -- 65
2020-09-17 10:00:00 22.1 8 Oeste 14 Oeste 0 1015.7 -- 72
2020-09-17 09:00:00 21.1 5 Oeste 9 Sudoeste 0 1015.7 -- 79
2020-09-17 08:00:00 20.8 7 Sudoeste 11 Oeste 0 1015.3 -- 75
2020-09-17 07:00:00 20.3 5 Oeste 8 Sudoeste 0 1015.1 -- 81
2020-09-17 06:00:00 21 6 Oeste 15 Oeste 0 1015.3 -- 77
2020-09-17 05:00:00 21 6 Sudoeste 8 Oeste 0 1015.2 -- 90
2020-09-17 04:00:00 21.3 4 Oeste 10 Oeste 0 1015.4 -- 90
2020-09-17 03:00:00 21.2 6 Oeste 10 Oeste 0 1015.7 -- 90
2020-09-17 02:00:00 21.6 9 Oeste 12 Oeste 0 1016.1 -- 89
2020-09-17 01:00:00 21.9 8 Oeste 10 Oeste 0 1016.3 -- 90
2020-09-17 00:00:00 22.6 4 Sudoeste 8 Sudoeste 0 1016.2 -- 87
2020-09-16 23:00:00 23.4 6 Sudoeste 9 Sudoeste 0 1016 -- 85
2020-09-16 22:00:00 23.9 5 Sudoeste 9 Sudoeste 0 1015.6 -- 81
2020-09-16 21:00:00 24.3 6 Sudoeste 9 Sudoeste 0 1015.2 -- 73
2020-09-16 20:00:00 25.5 4 Sur 17 Sur 0 1015.1 -- 71
2020-09-16 19:00:00 27.3 9 Sur 17 Sudeste 0 1015.1 -- 63
2020-09-16 18:00:00 29.7 9 Sudeste 20 Sudeste 0 1015.3 -- 55
2020-09-16 17:00:00 30.7 10 Sudeste 21 Sudeste 0 1015.8 -- 51
2020-09-16 16:00:00 31.4 10 Sudeste 25 Este 0 1016.1 -- 44
2020-09-16 15:00:00 29 12 Este 25 Este 0 1016.8 -- 57
2020-09-16 14:00:00 28.7 12 Este 24 Este 0 1017.4 -- 62
2020-09-16 13:00:00 28.3 8 Este 18 Este 0 1017.9 -- 63
2020-09-16 12:00:00 28.3 8 Este 15 Este 0 1018.2 -- 61
2020-09-16 11:00:00 27.9 5 Este 10 Nordeste 0 1018.3 -- 62
2020-09-16 10:00:00 24 6 Sudoeste 13 Oeste 0 1018.3 -- 68
2020-09-16 09:00:00 20.1 8 Sudoeste 11 Sudoeste 0 1018.2 -- 82
2020-09-16 08:00:00 18.2 7 Sudoeste 13 Oeste 0 1018 -- 86
2020-09-16 07:00:00 18.6 5 Sudoeste 10 Sudoeste 0 1017.8 -- 90
2020-09-16 06:00:00 19.3 7 Sudoeste 10 Sudoeste 0 1017.5 -- 93
2020-09-16 05:00:00 20.4 7 Oeste 11 Oeste 0 1017.9 -- 94
2020-09-16 04:00:00 20.6 4 Oeste 10 Sudoeste 0 1018 -- 92
2020-09-16 03:00:00 21.1 7 Sudoeste 11 Oeste 0 1018.5 -- 92
2020-09-16 02:00:00 21.6 8 Sudoeste 12 Sudoeste 0 1018.6 -- 89
2020-09-16 01:00:00 22.2 6 Oeste 9 Oeste 0 1018.9 -- 89
2020-09-16 00:00:00 22.4 5 Sudoeste 10 Sudoeste 0 1018.9 -- 86
2020-09-15 23:00:00 22.6 7 Sudoeste 10 Oeste 0 1018.7 -- 85
2020-09-15 22:00:00 23.5 4 Sudoeste 9 Oeste 0 1018.6 -- 79
2020-09-15 21:00:00 24.6 3 Oeste 10 Este 0 1018.2 -- 73
2020-09-15 20:00:00 26 4 Sudeste 15 Sur 0 1017.8 -- 70
2020-09-15 19:00:00 27.3 6 Este 21 Este 0 1017.9 -- 64
2020-09-15 18:00:00 28.3 9 Este 20 Este 0 1018 -- 59
2020-09-15 17:00:00 28.9 10 Este 23 Este 0 1018.4 -- 57
2020-09-15 16:00:00 29 10 Este 22 Nordeste 0 1018.9 -- 59
2020-09-15 15:00:00 29.3 16 Norte 27 Norte 0 1019.5 -- 54
2020-09-15 14:00:00 29.2 17 Nordeste 28 Norte 0 1020.1 -- 56
2020-09-15 13:00:00 29.5 14 Norte 29 Norte 0 1020.5 -- 54
2020-09-15 12:00:00 29.1 16 Noroeste 29 Noroeste 0 1020.8 -- 56
2020-09-15 11:00:00 27.7 17 Noroeste 28 Noroeste 0 1020.7 -- 61
2020-09-15 10:00:00 26.4 13 Noroeste 22 Oeste 0 1020.3 -- 70
2020-09-15 09:00:00 22.8 6 Oeste 12 Oeste 0 1019.8 -- 77
2020-09-15 08:00:00 21.1 7 Oeste 14 Oeste 0 1019.5 -- 80
2020-09-15 07:00:00 21.1 6 Sudoeste 11 Sudoeste 0 1019.3 -- 80
2020-09-15 06:00:00 22.8 7 Oeste 19 Oeste 0 1019.6 -- 78
2020-09-15 05:00:00 22 6 Este 13 Nordeste 0 1018.5 -- 88
2020-09-15 04:00:00 21 6 Sudoeste 11 Oeste 0 1020.1 -- 87
2020-09-15 03:00:00 21 4 Sur 10 Sudoeste 0 1020.5 -- 87
2020-09-15 02:00:00 21.2 8 Sudoeste 12 Oeste 0 1021.5 -- 90
2020-09-15 01:00:00 21.1 7 Sudoeste 13 Oeste 0 1021.4 -- 90
2020-09-15 00:00:00 21.6 4 Sudoeste 11 Oeste 0 1020.9 -- 89
2020-09-14 23:00:00 21.9 5 Sudoeste 9 Oeste 0 1020.9 -- 88
2020-09-14 22:00:00 23.1 4 Oeste 8 Oeste 0 1020.6 -- 83
2020-09-14 21:00:00 24.6 3 Sur 13 Este 0 1020.1 -- 74
2020-09-14 20:00:00 25.6 7 Este 16 Este 0 1019.6 -- 72
2020-09-14 19:00:00 27.2 6 Este 19 Este 0 1019.9 -- 65
2020-09-14 18:00:00 27.9 9 Este 17 Este 0 1020 -- 60
2020-09-14 17:00:00 28 9 Nordeste 16 Nordeste 0 1020.3 -- 58
2020-09-14 16:00:00 29.1 7 Este 16 Nordeste 0 1020.8 -- 57
2020-09-14 15:00:00 28.3 8 Nordeste 17 Nordeste 0 1021.7 -- 59
2020-09-14 14:00:00 29.7 9 Norte 19 Nordeste 0 1022 -- 53
2020-09-14 13:00:00 29 10 Norte 21 Nordeste 0 1022.1 -- 55
2020-09-14 12:00:00 28.3 10 Norte 21 Nordeste 0 1022.1 -- 61
2020-09-14 11:00:00 28.5 12 Norte 22 Nordeste 0 1022 -- 58
2020-09-14 10:00:00 26.9 8 Norte 17 Noroeste 0 1021.9 -- 65
2020-09-14 09:00:00 22.9 6 Sudoeste 12 Sudoeste 0 1021.5 -- 74
2020-09-14 08:00:00 20.3 9 Oeste 13 Oeste 0 1021.5 -- 83
2020-09-14 07:00:00 19.7 4 Oeste 14 Oeste 0 1021.2 -- 82
2020-09-14 06:00:00 19.3 9 Sudoeste 13 Oeste 0 1021.1 -- 78
2020-09-14 05:00:00 18.6 8 Oeste 12 Sudoeste 0 1021.4 -- 82
2020-09-14 04:00:00 19 8 Sudoeste 14 Sudoeste 0 1021.3 -- 76
2020-09-14 03:00:00 18.9 9 Oeste 12 Oeste 0 1021.6 -- 77
2020-09-14 02:00:00 19.5 8 Oeste 13 Sudoeste 0 1021.8 -- 76
2020-09-14 01:00:00 19.7 10 Sudoeste 14 Sudoeste 0 1021.9 -- 77
2020-09-14 00:00:00 20.1 10 Sudoeste 13 Sudoeste 0 1021.9 -- 80
2020-09-13 23:00:00 21.1 7 Sudoeste 11 Oeste 0 1021.8 -- 81
2020-09-13 22:00:00 22.1 9 Oeste 12 Oeste 0 1021.6 -- 81
2020-09-13 21:00:00 23.7 3 Sudoeste 6 Sudoeste 0 1021.1 -- 79
2020-09-13 20:00:00 25.6 3 Sur 9 Este 0 1021 -- 70
2020-09-13 19:00:00 26.9 5 Nordeste 13 Este 0 1020.9 -- 64
2020-09-13 18:00:00 28.7 6 Este 18 Este 0 1020.9 -- 53
2020-09-13 17:00:00 29.5 9 Nordeste 21 Este 0 1021.1 -- 46
2020-09-13 16:00:00 30.6 8 Nordeste 22 Este 0 1021.3 -- 38
2020-09-13 15:00:00 30.8 10 Nordeste 23 Nordeste 0 1021.5 -- 37
2020-09-13 14:00:00 30.4 13 Nordeste 25 Nordeste 0 1021.8 -- 44
2020-09-13 13:00:00 30.6 12 Norte 31 Noroeste 0 1022 -- 41
2020-09-13 12:00:00 29.7 10 Norte 25 Norte 0 1022.1 -- 47
2020-09-13 11:00:00 28.6 12 Norte 22 Norte 0 1021.8 -- 48
2020-09-13 10:00:00 26.5 10 Noroeste 19 Noroeste 0 1021.3 -- 69
2020-09-13 09:00:00 22.2 6 Sudoeste 10 Sur 0 1020.9 -- 81
2020-09-13 08:00:00 18.9 7 Sudoeste 12 Sudoeste 0 1020.4 -- 84
2020-09-13 07:00:00 18.4 6 Sudoeste 9 Oeste 0 1020 -- 82
2020-09-13 06:00:00 18.4 5 Sudoeste 11 Sudoeste 0 1019.7 -- 78
2020-09-13 05:00:00 18.2 6 Sudoeste 10 Oeste 0 1019.7 -- 78
2020-09-13 04:00:00 20.2 8 Oeste 13 Oeste 0 1019.5 -- 69
2020-09-13 03:00:00 19.6 10 Sudoeste 13 Oeste 0 1019.7 -- 76
2020-09-13 02:00:00 19.9 10 Sudoeste 13 Oeste 0 1019.9 -- 80
2020-09-13 01:00:00 20.8 7 Oeste 13 Oeste 0 1019.7 -- 84
2020-09-13 00:00:00 21.3 6 Sudoeste 9 Sudoeste 0 1019.6 -- 85
2020-09-12 23:00:00 22.1 8 Oeste 11 Oeste 0 1019.4 -- 82
2020-09-12 22:00:00 22.5 5 Oeste 10 Sudoeste 0 1018.9 -- 76
2020-09-12 21:00:00 24 3 Sur 8 Sur 0 1018 -- 68
2020-09-12 20:00:00 26.1 4 Sur 17 Sur 0 1017.6 -- 62
2020-09-12 19:00:00 29 8 Sudeste 22 Sudeste 0 1017.4 -- 49
2020-09-12 18:00:00 30.7 10 Sur 22 Sur 0 1017 -- 37
2020-09-12 17:00:00 31.9 9 Sudeste 22 Sur 0 1016.9 -- 33
2020-09-12 16:00:00 30.6 9 Sudeste 27 Este 0 1017.1 -- 32
2020-09-12 15:00:00 29.3 10 Este 23 Este 0 1017.2 -- 52
2020-09-12 14:00:00 29.6 9 Este 20 Nordeste 0 1017.4 -- 51
2020-09-12 13:00:00 30.7 6 Este 16 Este 0 1017.4 -- 42
2020-09-12 12:00:00 31.2 6 Este 12 Este 0 1017.3 -- 43
2020-09-12 11:00:00 28.7 3 Oeste 12 Sudoeste 0 1017.1 -- 41
2020-09-12 10:00:00 25 8 Sudoeste 13 Oeste 0 1016.7 -- 57
2020-09-12 09:00:00 20.8 9 Sudoeste 12 Oeste 0 1016.3 -- 69
2020-09-12 08:00:00 17.6 9 Sudoeste 13 Oeste 0 1015.6 -- 79
2020-09-12 07:00:00 17.8 9 Oeste 13 Oeste 0 1015.2 -- 77
2020-09-12 06:00:00 18.1 9 Oeste 12 Oeste 0 1014.9 -- 74
2020-09-12 05:00:00 18.2 9 Sudoeste 12 Sudoeste 0 1014.7 -- 74
2020-09-12 04:00:00 18.4 9 Sudoeste 12 Sudoeste 0 1014.5 -- 74
2020-09-12 03:00:00 20.6 3 Noroeste 6 Oeste 0 1014.3 -- 72
2020-09-12 02:00:00 22.7 3 Oeste 18 Oeste 0 1014.1 -- 65
2020-09-12 01:00:00 23.5 9 Oeste 19 Oeste 0 1013.9 -- 66
2020-09-12 00:00:00 22.9 5 Oeste 13 Oeste 0 1013.8 -- 70
2020-09-11 23:00:00 23.5 3 Oeste 23 Oeste 0 1013.4 -- 59
2020-09-11 22:00:00 24.3 5 Sudoeste 16 Sudoeste 0 1013 -- 56
2020-09-11 21:00:00 24.5 3 Oeste 25 Oeste 0 1012.2 -- 62
2020-09-11 20:00:00 25.4 6 Oeste 30 Sudoeste 0 1011.9 -- 59
2020-09-11 19:00:00 27.6 13 Sudoeste 35 Sur 0 1011.7 -- 44
2020-09-11 18:00:00 28.9 18 Sur 42 Sur 0 1012 -- 39
2020-09-11 17:00:00 30 18 Sur 39 Sur 0 1012.3 -- 38
2020-09-11 16:00:00 31.2 18 Sur 37 Sur 0 1012.7 -- 31
2020-09-11 15:00:00 32.2 17 Sur 35 Sur 0 1012.7 -- 27
2020-09-11 14:00:00 31.7 16 Sur 35 Sur 0 1013.1 -- 27
2020-09-11 13:00:00 31 13 Sudoeste 27 Sudoeste 0 1013.5 -- 32
2020-09-11 12:00:00 30.5 10 Sur 20 Sudoeste 0 1013.8 -- 31
2020-09-11 11:00:00 28.1 7 Sudoeste 14 Sudoeste 0 1014 -- 41
2020-09-11 10:00:00 23.8 5 Sudoeste 13 Sudoeste 0 1013.9 -- 56
2020-09-11 09:00:00 20 6 Sudoeste 12 Sudoeste 0 1013.9 -- 69
2020-09-11 08:00:00 16.7 6 Sudoeste 15 Noroeste 0 1013.6 -- 80
2020-09-11 07:00:00 16.6 7 Sudoeste 11 Oeste 0 1013.7 -- 84
2020-09-11 06:00:00 16.7 8 Sudoeste 12 Sudoeste 0 1013.6 -- 85
2020-09-11 05:00:00 17.5 8 Oeste 11 Oeste 0 1014 -- 82
2020-09-11 04:00:00 17.6 7 Sudoeste 13 Sudoeste 0 1014.2 -- 84
2020-09-11 03:00:00 18.5 5 Oeste 11 Oeste 0 1014.3 -- 87
2020-09-11 02:00:00 18.7 6 Sudoeste 9 Sudoeste 0 1014.7 -- 89
2020-09-11 01:00:00 19.3 6 Sudoeste 10 Sudoeste 0 1015.2 -- 87
2020-09-11 00:00:00 19.9 5 Oeste 8 Sudoeste 0 1015.4 -- 84
2020-09-10 23:00:00 20.6 3 Sudoeste 6 Sudoeste 0 1015.4 -- 79
2020-09-10 22:00:00 21.7 3 Sudoeste 8 Sudoeste 0 1015.3 -- 73
2020-09-10 21:00:00 23 3 Noroeste 12 Sur 0 1015.1 -- 67
2020-09-10 20:00:00 24.6 7 Sur 14 Sur 0 1014.9 -- 59
2020-09-10 19:00:00 26.8 6 Este 15 Sudeste 0 1014.8 -- 54
2020-09-10 18:00:00 27.1 7 Este 19 Este 0 1015.1 -- 51
2020-09-10 17:00:00 27.4 9 Este 22 Este 0 1015.6 -- 52
2020-09-10 16:00:00 27.9 13 Nordeste 27 Nordeste 0 1015.9 -- 47
2020-09-10 15:00:00 28.4 13 Norte 27 Nordeste 0 1016.5 -- 45
2020-09-10 14:00:00 27.6 17 Nordeste 26 Norte 0 1017.2 -- 49
2020-09-10 13:00:00 28.3 12 Norte 24 Norte 0 1017.7 -- 45
2020-09-10 12:00:00 27.4 14 Norte 25 Norte 0 1018 -- 53
2020-09-10 11:00:00 26.4 12 Norte 24 Norte 0 1018 -- 60
2020-09-10 10:00:00 24.7 10 Norte 19 Norte 0 1017.8 -- 66
2020-09-10 09:00:00 20.9 7 Sudoeste 13 Oeste 0 1017.4 -- 73
2020-09-10 08:00:00 18.8 7 Oeste 12 Oeste 0 1017.3 -- 82
2020-09-10 07:00:00 18.6 7 Oeste 12 Oeste 0 1017 -- 82
2020-09-10 06:00:00 19.1 8 Oeste 16 Sudoeste 0 1017 -- 79
2020-09-10 05:00:00 19.1 8 Oeste 15 Oeste 0 1017.2 -- 78
2020-09-10 04:00:00 19.1 10 Oeste 17 Oeste 0 1017.7 -- 78
2020-09-10 03:00:00 19.3 7 Oeste 10 Oeste 0 1018.3 -- 81
2020-09-10 02:00:00 19.8 7 Oeste 14 Oeste 0 1018.6 -- 80
2020-09-10 01:00:00 20.2 7 Oeste 13 Oeste 0 1018.7 -- 81
2020-09-10 00:00:00 20.2 8 Oeste 11 Oeste 0 1019 -- 82
2020-09-09 23:00:00 20.7 6 Oeste 13 Noroeste 0 1018.9 -- 78
2020-09-09 22:00:00 21.8 8 Noroeste 13 Norte 0 1018.7 -- 72
2020-09-09 21:00:00 22.7 4 Noroeste 13 Nordeste 0 1018.1 -- 69
2020-09-09 20:00:00 23.8 7 Norte 20 Nordeste 0 1017.9 -- 66
2020-09-09 19:00:00 25.5 12 Nordeste 20 Norte 0 1017.9 -- 61
2020-09-09 18:00:00 26.2 12 Norte 24 Norte 0 1018 -- 54
2020-09-09 17:00:00 26.2 11 Nordeste 23 Nordeste 0 1018.3 -- 59
2020-09-09 16:00:00 27.6 14 Norte 27 Nordeste 0 1018.3 -- 52
2020-09-09 15:00:00 27.6 13 Norte 28 Norte 0 1018.9 -- 51
2020-09-09 14:00:00 27.6 14 Norte 33 Norte 0 1019.4 -- 49
2020-09-09 13:00:00 26.8 19 Noroeste 32 Norte 0 1019.9 -- 50
2020-09-09 12:00:00 26.3 21 Norte 39 Norte 0 1020.4 -- 52
2020-09-09 11:00:00 25 17 Norte 33 Noroeste 0 1020.2 -- 58
2020-09-09 10:00:00 22.4 17 Noroeste 29 Norte 0 1019.8 -- 60
2020-09-09 09:00:00 21 9 Noroeste 31 Noroeste 0 1019.5 -- 67
2020-09-09 08:00:00 19.4 9 Oeste 19 Sudoeste 0 1018.9 -- 77
2020-09-09 07:00:00 18.8 8 Oeste 18 Oeste 0 1018.7 -- 81
2020-09-09 06:00:00 19.2 12 Oeste 22 Oeste 0 1018.9 -- 79
2020-09-09 05:00:00 19.4 9 Oeste 17 Oeste 0 1019.2 -- 78
2020-09-09 04:00:00 20 11 Oeste 19 Oeste 0 1019.2 -- 78
2020-09-09 03:00:00 21.8 13 Nordeste 24 Nordeste 0 1019.4 -- 69
2020-09-09 02:00:00 21.4 7 Noroeste 16 Oeste 0 1019.7 -- 65
2020-09-09 01:00:00 21.5 9 Noroeste 27 Norte 0 1020 -- 62
2020-09-09 00:00:00 21.6 12 Noroeste 19 Noroeste 0 1020.4 -- 59
2020-09-08 23:00:00 21.7 8 Oeste 17 Noroeste 0 1020.3 -- 57
2020-09-08 22:00:00 21.8 8 Noroeste 15 Noroeste 0 1020.7 -- 54
2020-09-08 21:00:00 22.5 9 Norte 18 Norte 0 1020.3 -- 48
2020-09-08 20:00:00 23.5 8 Norte 18 Norte 0 1020.2 -- 47
2020-09-08 19:00:00 25.3 10 Norte 22 Norte 0 1020.1 -- 41
2020-09-08 18:00:00 25.9 13 Norte 26 Nordeste 0 1020.2 -- 38
2020-09-08 17:00:00 26.9 13 Nordeste 31 Nordeste 0 1020.4 -- 37
2020-09-08 16:00:00 26.7 15 Norte 28 Norte 0 1020.6 -- 42
2020-09-08 15:00:00 26.4 17 Norte 35 Nordeste 0 1021.1 -- 43
2020-09-08 14:00:00 24 16 Norte 30 Norte 0 1021.3 -- 56
2020-09-08 13:00:00 21.9 18 Norte 40 Norte 0.2 1021.9 -- 68
2020-09-08 12:00:00 25.8 23 Noroeste 36 Noroeste 0 1021.7 -- 54
2020-09-08 11:00:00 22.9 18 Noroeste 33 Noroeste 0 1021.8 -- 65
2020-09-08 10:00:00 24 13 Norte 24 Norte 0 1021.3 -- 52
2020-09-08 09:00:00 23.3 12 Nordeste 23 Nordeste 0 1021 -- 52
2020-09-08 08:00:00 21 5 Sudeste 18 Nordeste 0 1020.4 -- 68
2020-09-08 07:00:00 21.1 12 Nordeste 31 Nordeste 0 1020 -- 67
2020-09-08 06:00:00 21 21 Nordeste 38 Nordeste 0 1019.8 -- 69
2020-09-08 05:00:00 22.1 10 Nordeste 28 Nordeste 0 1019.6 -- 53
2020-09-08 04:00:00 21.8 10 Este 26 Este 0 1019.5 -- 60
2020-09-08 03:00:00 22.1 11 Este 24 Este 0 1019.5 -- 63
2020-09-08 02:00:00 22.3 11 Este 23 Nordeste 0 1019.5 -- 64
2020-09-08 01:00:00 22.2 13 Nordeste 21 Nordeste 0 1019.5 -- 68
2020-09-08 00:00:00 21.9 9 Nordeste 19 Nordeste 0 1019.5 -- 70
2020-09-07 23:00:00 21.8 9 Nordeste 24 Norte 0 1019.1 -- 70
2020-09-07 22:00:00 22.2 13 Nordeste 23 Nordeste 0 1018.6 -- 68
2020-09-07 21:00:00 22.2 14 Nordeste 24 Norte 0 1018.1 -- 69
2020-09-07 20:00:00 22.4 14 Nordeste 32 Norte 0 1017.5 -- 68
2020-09-07 19:00:00 22.7 16 Nordeste 37 Norte 0 1017 -- 71
2020-09-07 18:00:00 22.4 18 Nordeste 32 Norte 0.2 1016.6 -- 73
2020-09-07 17:00:00 24.3 20 Norte 42 Norte 0 1016.1 -- 64
2020-09-07 16:00:00 23.9 25 Norte 51 Nordeste 0 1016.1 -- 71
2020-09-07 15:00:00 21.1 29 Norte 53 Norte 4.4 1016.4 -- 87
2020-09-07 14:00:00 22.3 14 Norte 42 Norte 0.2 1016.1 -- 79
2020-09-07 13:00:00 23 23 Norte 44 Norte 0 1016 -- 67
2020-09-07 12:00:00 24.7 16 Nordeste 32 Norte 0.2 1015.8 -- 69
2020-09-07 11:00:00 24.1 20 Nordeste 39 Nordeste 0 1015.7 -- 63
2020-09-07 10:00:00 24.6 6 Sudoeste 12 Sudoeste 0 1015 -- 66
2020-09-07 09:00:00 20.7 7 Sudoeste 12 Oeste 0 1014.4 -- 81
2020-09-07 08:00:00 18.5 8 Sudoeste 12 Sudoeste 0 1014.2 -- 87
2020-09-07 07:00:00 18.2 9 Sudoeste 10 Sudoeste 0 1013.8 -- 90
2020-09-07 06:00:00 18.7 7 Sudoeste 9 Sudoeste 0 1013.4 -- 89
2020-09-07 05:00:00 20.3 5 Oeste 10 Oeste 0 1013.5 -- 84
2020-09-07 04:00:00 21.3 5 Oeste 13 Oeste 0 1013.7 -- 79
2020-09-07 03:00:00 22 5 Sudoeste 15 Sur 0 1014.2 -- 77
2020-09-07 02:00:00 21.5 6 Sudoeste 13 Sudoeste 0 1014.5 -- 78
2020-09-07 01:00:00 22.7 7 Sudoeste 15 Sudoeste 0 1014.5 -- 71
2020-09-07 00:00:00 22.7 7 Sudoeste 12 Sudoeste 0 1014.5 -- 72
2020-09-06 23:00:00 22.5 8 Sudoeste 14 Sudoeste 0 1014.6 -- 72
2020-09-06 22:00:00 22.8 7 Sudoeste 10 Sur 0 1014.4 -- 71
2020-09-06 21:00:00 23.7 6 Sur 15 Sur 0 1014.2 -- 68
2020-09-06 20:00:00 25.6 8 Sur 19 Sudeste 0 1013.8 -- 60
2020-09-06 19:00:00 27.9 11 Sur 23 Sudeste 0 1014 -- 54
2020-09-06 18:00:00 28.7 12 Este 24 Este 0 1014 -- 52
2020-09-06 17:00:00 28.9 10 Este 22 Este 0 1014.5 -- 52
2020-09-06 16:00:00 28.7 12 Este 22 Este 0 1014.9 -- 54
2020-09-06 15:00:00 28.6 11 Este 19 Nordeste 0 1015.5 -- 53
2020-09-06 14:00:00 28.5 10 Nordeste 19 Nordeste 0 1015.9 -- 53
2020-09-06 13:00:00 29.1 12 Nordeste 19 Nordeste 0 1016.4 -- 50
2020-09-06 12:00:00 29.2 9 Norte 18 Nordeste 0 1016.7 -- 49
2020-09-06 11:00:00 28.1 8 Norte 19 Norte 0 1016.5 -- 55
2020-09-06 10:00:00 26.1 10 Noroeste 18 Noroeste 0 1016.1 -- 64
2020-09-06 09:00:00 22.1 4 Sudoeste 13 Sudoeste 0 1016 -- 77
2020-09-06 08:00:00 19 10 Sudoeste 13 Sudoeste 0 1016 -- 85
2020-09-06 07:00:00 19.5 10 Sudoeste 15 Sudoeste 0 1015.6 -- 83
2020-09-06 06:00:00 19.5 8 Oeste 12 Oeste 0 1015.7 -- 86
2020-09-06 05:00:00 20 8 Oeste 14 Oeste 0 1015.8 -- 82
2020-09-06 04:00:00 20.5 10 Oeste 16 Oeste 0 1016.1 -- 83
2020-09-06 03:00:00 20.5 9 Oeste 13 Oeste 0 1016.5 -- 85
2020-09-06 02:00:00 20.5 9 Oeste 13 Oeste 0 1016.9 -- 86
2020-09-06 01:00:00 20.2 8 Oeste 11 Oeste 0 1017.2 -- 86
2020-09-06 00:00:00 20.5 8 Sudoeste 10 Sudoeste 0 1017.3 -- 85
2020-09-05 23:00:00 21.5 6 Sudoeste 9 Sudoeste 0 1017.4 -- 81
2020-09-05 22:00:00 22.4 4 Oeste 6 Sudoeste 0 1017.2 -- 77
2020-09-05 21:00:00 24.1 3 Sudoeste 9 Este 0 1016.8 -- 68
2020-09-05 20:00:00 26 4 Este 13 Este 0 1016.5 -- 60
2020-09-05 19:00:00 28 5 Este 16 Este 0 1016.7 -- 52
2020-09-05 18:00:00 28.3 8 Este 19 Nordeste 0 1016.7 -- 51
2020-09-05 17:00:00 28.1 9 Este 20 Este 0 1017.2 -- 53
2020-09-05 16:00:00 27.6 13 Nordeste 21 Nordeste 0 1017.8 -- 55
2020-09-05 15:00:00 27.4 13 Nordeste 22 Nordeste 0 1018.2 -- 58
2020-09-05 14:00:00 28.3 12 Este 21 Este 0 1018.4 -- 50
2020-09-05 13:00:00 28.7 7 Este 19 Nordeste 0 1019.1 -- 48
2020-09-05 12:00:00 28.8 6 Nordeste 18 Norte 0 1019.4 -- 50
2020-09-05 11:00:00 27.9 8 Norte 18 Noroeste 0 1019.5 -- 53
2020-09-05 10:00:00 24.2 7 Noroeste 13 Noroeste 0 1019.5 -- 60
2020-09-05 09:00:00 21.7 8 Sudoeste 12 Oeste 0 1019.1 -- 73
2020-09-05 08:00:00 18.9 8 Sudoeste 13 Oeste 0 1019.1 -- 82
2020-09-05 07:00:00 19.3 8 Oeste 15 Oeste 0 1019.1 -- 82
2020-09-05 06:00:00 19.6 9 Oeste 14 Oeste 0 1019.2 -- 84
2020-09-05 05:00:00 18.9 8 Oeste 11 Oeste 0 1019.3 -- 89
2020-09-05 04:00:00 18.9 9 Oeste 12 Sudoeste 0 1019.6 -- 89
2020-09-05 03:00:00 19.3 9 Sudoeste 12 Sudoeste 0 1020.2 -- 88
2020-09-05 02:00:00 19.5 8 Sudoeste 10 Sudoeste 0 1020.6 -- 88
2020-09-05 01:00:00 19.8 6 Sudoeste 9 Sudoeste 0 1021 -- 86
2020-09-05 00:00:00 20.4 7 Sudoeste 9 Sudoeste 0 1021.2 -- 83
2020-09-04 23:00:00 21.2 5 Oeste 8 Oeste 0 1021.2 -- 81
2020-09-04 22:00:00 22.2 5 Sudoeste 6 Sudoeste 0 1021.1 -- 74
2020-09-04 21:00:00 24 4 Sur 12 Este 0 1020.8 -- 65
2020-09-04 20:00:00 26.2 6 Este 14 Este 0 1020.7 -- 58
2020-09-04 19:00:00 27.9 6 Sudeste 18 Este 0 1020.8 -- 50
2020-09-04 18:00:00 28 7 Este 22 Este 0 1021.1 -- 49
2020-09-04 17:00:00 28.4 9 Este 20 Este 0 1021.6 -- 51
2020-09-04 16:00:00 29.3 10 Este 20 Este 0 1022.1 -- 48
2020-09-04 15:00:00 29 8 Este 20 Nordeste 0 1022.7 -- 51
2020-09-04 14:00:00 28.7 9 Este 20 Este 0 1023.2 -- 51
2020-09-04 13:00:00 28.9 8 Este 17 Nordeste 0 1023.6 -- 49
2020-09-04 12:00:00 29.2 7 Nordeste 14 Nordeste 0 1023.8 -- 48
2020-09-04 11:00:00 28.1 5 Nordeste 10 Nordeste 0 1023.8 -- 50
2020-09-04 10:00:00 24.6 5 Sudoeste 13 Oeste 0 1023.4 -- 59
2020-09-04 09:00:00 20.9 8 Sudoeste 13 Oeste 0 1023 -- 71
2020-09-04 08:00:00 17.9 9 Oeste 12 Oeste 0 1022.6 -- 83
2020-09-04 07:00:00 17.9 9 Oeste 12 Oeste 0 1022.2 -- 87
2020-09-04 06:00:00 18.5 7 Oeste 12 Oeste 0 1021.8 -- 88
2020-09-04 05:00:00 18.4 8 Sudoeste 12 Sudoeste 0 1021.6 -- 88
2020-09-04 04:00:00 19 7 Sudoeste 10 Oeste 0 1021.7 -- 87
2020-09-04 03:00:00 19.2 8 Oeste 10 Oeste 0 1022.1 -- 86
2020-09-04 02:00:00 19.2 4 Oeste 8 Oeste 0 1022.6 -- 85
2020-09-04 01:00:00 20 7 Oeste 8 Sudoeste 0 1022.8 -- 82
2020-09-04 00:00:00 20.2 5 Sudoeste 7 Sudoeste 0 1022.7 -- 81
2020-09-03 23:00:00 21.1 5 Sudoeste 9 Oeste 0 1022.5 -- 76
2020-09-03 22:00:00 22.6 6 Sudoeste 12 Sur 0 1021.9 -- 68
2020-09-03 21:00:00 24 6 Sur 15 Sur -- 1021.4 -- 62
2020-09-03 20:00:00 25.7 9 Sur 22 Sur -- 1020.8 -- 56
2020-09-03 19:00:00 28.3 9 Sur 28 Sur -- 1020.9 -- 46
2020-09-03 18:00:00 29.6 10 Sudeste 22 Sudeste -- 1020.7 -- 41
2020-09-03 17:00:00 30 13 Sudeste 28 Sur -- 1020.8 -- 39
2020-09-03 16:00:00 30.3 13 Sur 25 Sudeste -- 1020.8 -- 38
2020-09-03 15:00:00 31 10 Sudeste 26 Sur -- 1021.2 -- 38
2020-09-03 14:00:00 30 9 Sudeste 23 Este -- 1021.4 -- 42
2020-09-03 13:00:00 28.2 10 Este 24 Este -- 1021.4 -- 48
2020-09-03 12:00:00 28.9 9 Este 17 Este -- 1021.1 -- 45
2020-09-03 11:00:00 28 7 Este -- -- -- 1020.9 -- 48
2020-09-03 10:00:00 25.3 4 Sudoeste 14 Oeste -- 1020.2 -- 61
2020-09-03 09:00:00 21.8 9 Oeste 14 Oeste -- 1019.7 -- 75
2020-09-03 08:00:00 18.4 9 Sudoeste 12 Oeste -- 1019.3 -- 90
2020-09-03 07:00:00 18.1 9 Sudoeste 12 Sudoeste -- 1018.8 -- 89
2020-09-03 06:00:00 18.6 9 Sudoeste 11 Sudoeste -- 1018.4 -- 88
2020-09-03 05:00:00 19.1 6 Oeste 12 Oeste -- 1018 -- 87
2020-09-03 04:00:00 19.4 8 Oeste 11 Oeste -- 1018.1 -- 85
2020-09-03 03:00:00 19.6 7 Sudoeste 10 Sudoeste -- 1018.2 -- 85
2020-09-03 02:00:00 19.9 6 Sudoeste 9 Sudoeste -- 1018.4 -- 83
2020-09-03 01:00:00 20.2 5 Oeste 8 Oeste -- 1018.2 -- 81
2020-09-03 00:00:00 20.6 6 Oeste 8 Oeste -- 1017.9 -- 79
2020-09-02 23:00:00 21.5 4 Sudoeste 7 Sudoeste -- 1017.5 -- 72
2020-09-02 22:00:00 22.6 6 Sudoeste 13 Sur -- 1017 -- 66
2020-09-02 21:00:00 23.8 5 Sur 19 Sur -- 1016.2 -- 60
2020-09-02 20:00:00 25.6 9 Sur 21 Sur -- 1015.6 -- 54
2020-09-02 19:00:00 28.2 10 Sudeste 21 Sur -- 1015.2 -- 47
2020-09-02 18:00:00 28.9 13 Sur 22 Este -- 1015 -- 44
2020-09-02 17:00:00 27.8 11 Este 23 Este -- 1014.9 -- 51
2020-09-02 16:00:00 28.3 10 Este 22 Nordeste -- 1014.9 -- 51
2020-09-02 15:00:00 28.6 7 Nordeste 23 Nordeste -- 1015.1 -- 46
2020-09-02 14:00:00 29.5 9 Nordeste 20 Norte -- 1015.3 -- 41
2020-09-02 13:00:00 27.7 8 Nordeste 21 Norte -- 1015.2 -- 48
2020-09-02 12:00:00 26.7 6 Nordeste 17 Nordeste -- 1015.3 -- 55
2020-09-02 11:00:00 25.6 3 Este 17 Sudeste -- 1015 -- 60
2020-09-02 10:00:00 21.4 7 Sudoeste 14 Sudoeste -- 1014.7 -- 71
2020-09-02 09:00:00 19.4 7 Sudoeste 13 Oeste -- 1013.9 -- 79
2020-09-02 08:00:00 18.4 7 Oeste 14 Oeste -- 1013.5 -- 81
2020-09-02 07:00:00 18.6 8 Oeste 13 Oeste -- 1012.9 -- 79
2020-09-02 06:00:00 18.8 8 Oeste 12 Oeste -- 1012.4 -- 81
2020-09-02 05:00:00 19.4 8 Sudoeste 13 Sudoeste -- 1012.1 -- 80
2020-09-02 04:00:00 19.8 8 Oeste 12 Sudoeste -- 1012.1 -- 81
2020-09-02 03:00:00 20.4 7 Oeste 11 Oeste -- 1012.1 -- 76
2020-09-02 02:00:00 20 7 Oeste 12 Sudoeste -- 1012.1 -- 77
2020-09-02 01:00:00 19.8 7 Oeste 12 Oeste -- 1012 -- 78
2020-09-02 00:00:00 20 6 Oeste 9 Oeste -- 1012 -- 76
2020-09-01 23:00:00 19.6 5 Sudoeste 8 Sudoeste -- 1011.8 -- 77
2020-09-01 22:00:00 21.7 5 Oeste 12 Oeste -- 1011.4 -- 63
2020-09-01 21:00:00 22.6 6 Sudoeste 18 Sur -- 1011.1 -- 60
2020-09-01 20:00:00 24.8 8 Sur 19 Sur -- 1010.5 -- 52
2020-09-01 19:00:00 25.5 10 Sudeste 21 Sudeste -- 1009.8 -- 49
2020-09-01 18:00:00 25.3 10 Sur 23 Sur -- 1010.2 -- 49
2020-09-01 17:00:00 25.5 11 Sur 26 Sur -- 1011 -- 46
2020-09-01 16:00:00 27 9 Sudeste 21 Sur -- 1011.1 -- 44
2020-09-01 15:00:00 26.8 8 Sudeste 20 Sudeste -- 1012.1 -- 45
2020-09-01 14:00:00 27.3 11 Sur 23 Sudeste -- 1012.5 -- 46
2020-09-01 13:00:00 27.5 9 Sudeste 22 Sur -- 1012.9 -- 44
2020-09-01 12:00:00 28.7 8 Sudeste 21 Este -- 1013.3 -- 41
2020-09-01 11:00:00 27.5 8 Este 17 Nordeste -- 1013.3 -- 49
2020-09-01 10:00:00 25.3 2 Sudeste 10 Sudoeste -- 1013.3 -- 52
2020-09-01 09:00:00 20.4 8 Oeste 13 Oeste -- 1013.3 -- 69
2020-09-01 08:00:00 16.6 9 Sudoeste 12 Sudoeste -- 1013.4 -- 84
2020-09-01 07:00:00 16.4 9 Sudoeste 13 Oeste -- 1013.2 -- 84
2020-09-01 06:00:00 16.6 9 Sudoeste 12 Oeste -- 1013.2 -- 84
2020-09-01 05:00:00 17.1 6 Sudoeste 10 Oeste -- 1013.7 -- 81
2020-09-01 04:00:00 18.2 6 Oeste 12 Oeste -- 1014.1 -- 77
2020-09-01 03:00:00 18.4 8 Sudoeste 15 Sudoeste -- 1014.9 -- 78
2020-09-01 02:00:00 18.5 5 Sudoeste 9 Oeste -- 1015.4 -- 78
2020-09-01 01:00:00 19.5 6 Sudoeste 10 Oeste -- 1015.7 -- 71
2020-09-01 00:00:00 20.7 7 Sudoeste 10 Oeste -- 1015.8 -- 65
2020-08-31 23:00:00 21.4 7 Oeste 12 Sudoeste -- 1015.8 -- 61
2020-08-31 22:00:00 22.1 7 Oeste 15 Sudoeste -- 1015.5 -- 58
2020-08-31 21:00:00 22.8 7 Sudoeste 22 Sur -- 1015.1 -- 54
2020-08-31 20:00:00 24.4 10 Sur 24 Sur -- 1015 -- 48
2020-08-31 19:00:00 26.8 13 Sur 26 Sur -- 1015.5 -- 40
2020-08-31 18:00:00 28.1 9 Sudeste 23 Sudeste -- 1015.5 -- 37
2020-08-31 17:00:00 27.2 10 Este 25 Este -- 1015.9 -- 40
2020-08-31 16:00:00 27.7 11 Este 22 Nordeste -- 1016.6 -- 38
2020-08-31 15:00:00 27.2 10 Este 23 Nordeste -- 1017.2 -- 34
2020-08-31 14:00:00 26.8 11 Nordeste 23 Nordeste -- 1017.7 -- 37
2020-08-31 13:00:00 26.8 15 Norte 30 Nordeste -- 1018 -- 39
2020-08-31 12:00:00 26.6 15 Norte 29 Nordeste -- 1018.5 -- 38
2020-08-31 11:00:00 26 15 Norte 27 Noroeste -- 1018.6 -- 42
2020-08-31 10:00:00 24.2 15 Norte 29 Norte -- 1017.9 -- 48
2020-08-31 09:00:00 22.5 17 Noroeste 32 Norte -- 1017.4 -- 53
2020-08-31 08:00:00 19.9 13 Noroeste 26 Noroeste -- 1016.9 -- 63
2020-08-31 07:00:00 18.4 8 Noroeste 14 Oeste -- 1016.1 -- 70
2020-08-31 06:00:00 18.9 8 Oeste 19 Noroeste -- 1015.8 -- 67
2020-08-31 05:00:00 20.1 12 Noroeste 20 Norte -- 1015.9 -- 66
2020-08-31 04:00:00 19.4 8 Noroeste 15 Norte -- 1015.6 -- 67
2020-08-31 03:00:00 17.5 5 Noroeste 13 Noroeste -- 1015.8 -- 79
2020-08-31 02:00:00 17.7 6 Oeste 15 Oeste -- 1016.1 -- 76
2020-08-31 01:00:00 18.5 9 Oeste 14 Oeste -- 1016 -- 72
2020-08-31 00:00:00 19.2 9 Oeste 14 Oeste -- 1015.5 -- 69
2020-08-30 23:00:00 19.3 10 Oeste 13 Sudoeste -- 1014.8 -- 70
2020-08-30 22:00:00 19.5 6 Oeste 9 Oeste -- 1013.9 -- 72
2020-08-30 21:00:00 22.6 3 Nordeste 9 Nordeste -- 1012.7 -- 59
2020-08-30 20:00:00 24.1 4 Sudeste 14 Nordeste -- 1012.1 -- 51
2020-08-30 19:00:00 25.4 7 Este 19 Nordeste -- 1011.7 -- 39
2020-08-30 18:00:00 25.6 11 Nordeste 25 Nordeste -- 1011.8 -- 35
2020-08-30 17:00:00 25.8 10 Nordeste 23 Nordeste -- 1011.7 -- 34
2020-08-30 16:00:00 26 9 Nordeste 23 Nordeste -- 1012.3 -- 34
2020-08-30 15:00:00 25.7 10 Norte 26 Nordeste -- 1012.2 -- 34
2020-08-30 14:00:00 25.3 17 Norte 27 Norte -- 1012.4 -- 36
2020-08-30 13:00:00 25.5 12 Norte 30 Noroeste -- 1012.5 -- 41
2020-08-30 12:00:00 25.5 18 Norte 32 Nordeste -- 1012.3 -- 37
2020-08-30 11:00:00 24.3 16 Norte 31 Norte -- 1012.2 -- 38
2020-08-30 10:00:00 23.2 15 Norte 28 Norte -- 1011.5 -- 45
2020-08-30 09:00:00 21.3 15 Noroeste 26 Noroeste -- 1011 -- 52
2020-08-30 08:00:00 17.8 6 Oeste 18 Noroeste -- 1010.3 -- 67
2020-08-30 07:00:00 19.6 11 Noroeste 34 Noroeste -- 1009.8 -- 58
2020-08-30 06:00:00 19.8 17 Noroeste 38 Noroeste -- 1009 -- 53
2020-08-30 05:00:00 19.9 17 Noroeste 33 Noroeste -- 1008.7 -- 54
2020-08-30 04:00:00 19.5 12 Noroeste 25 Noroeste -- 1008.8 -- 63
2020-08-30 03:00:00 19.6 10 Noroeste 15 Noroeste -- 1008.6 -- 75
2020-08-30 02:00:00 20 8 Noroeste 18 Noroeste -- 1008.1 -- 74
2020-08-30 01:00:00 20.2 11 Noroeste 18 Noroeste -- 1007.8 -- 71
2020-08-30 00:00:00 20.3 11 Noroeste 19 Noroeste -- 1007 -- 76
2020-08-29 23:00:00 21 9 Noroeste 33 Norte -- 1006.5 -- 74
2020-08-29 22:00:00 21.2 12 Nordeste 21 Nordeste -- 1005.6 -- 74
2020-08-29 21:00:00 20.1 9 Nordeste 28 Norte -- 1004.4 -- 84
2020-08-29 20:00:00 19 19 Norte 36 Noroeste -- 1004.1 -- 93
2020-08-29 19:00:00 20.1 13 Oeste 44 Norte 0.2 1004.3 -- 92
2020-08-29 18:00:00 20.7 30 Nordeste 58 Nordeste 0 1002.1 -- 91
2020-08-29 17:00:00 22.4 21 Nordeste 44 Nordeste 0.2 1002.1 -- 84
2020-08-29 16:00:00 25.3 21 Nordeste 37 Nordeste 0.2 1002.4 -- 66
2020-08-29 15:00:00 25.8 21 Nordeste 41 Nordeste 0 1002.4 -- 60
2020-08-29 14:00:00 24.3 19 Nordeste 42 Nordeste 0.2 1002.5 -- 70
2020-08-29 13:00:00 23.8 17 Nordeste 33 Norte 0.2 1002.8 -- 79
2020-08-29 12:00:00 23.2 21 Norte 39 Nordeste 0 1002.9 -- 87
2020-08-29 11:00:00 24.3 20 Nordeste 38 Nordeste 0 1002.3 -- 82
2020-08-29 10:00:00 26 21 Norte 37 Nordeste 0 1002 -- 67
2020-08-29 09:00:00 25.2 22 Nordeste 41 Norte 0 1002 -- 70
2020-08-29 08:00:00 24.8 24 Norte 44 Norte 0 1001.4 -- 73
2020-08-29 07:00:00 25.2 19 Norte 45 Norte 0 1000.9 -- 73
2020-08-29 06:00:00 25.5 24 Norte 50 Norte 0 1000.4 -- 73
2020-08-29 05:00:00 26.2 13 Noroeste 32 Noroeste 0 1000.2 -- 79
2020-08-29 04:00:00 26 13 Noroeste 36 Norte 0 1000.2 -- 81
2020-08-29 03:00:00 26 18 Noroeste 33 Noroeste 0 1000.2 -- 81
2020-08-29 02:00:00 26.4 17 Noroeste 41 Noroeste 0 1000.6 -- 78
2020-08-29 01:00:00 26.5 19 Noroeste 36 Noroeste 0 1000.9 -- 80
2020-08-29 00:00:00 26.3 5 Sur 14 Sur 0 1001.1 -- 81
2020-08-28 23:00:00 26.2 7 Sudoeste 29 Sudoeste 0 1001.1 -- 82
2020-08-28 22:00:00 26.5 14 Sudoeste 35 Sudoeste 0 1000.7 -- 79
2020-08-28 21:00:00 26.8 13 Sudoeste 28 Sudoeste 0 1000.6 -- 74
2020-08-28 20:00:00 27.7 16 Sudoeste 36 Sudoeste 0 1001 -- 68
2020-08-28 19:00:00 28.8 14 Sudoeste 40 Sudoeste 0 1001.4 -- 62
2020-08-28 18:00:00 30.5 20 Sur 41 Sur 0 1001.8 -- 54
2020-08-28 17:00:00 31.4 18 Sur 39 Sur 0 1002.7 -- 51
2020-08-28 16:00:00 32.4 23 Sur 43 Sudoeste 0 1003.3 -- 44
2020-08-28 15:00:00 32 19 Sur 37 Sur 0 1004.5 -- 44
2020-08-28 14:00:00 32.7 17 Sur 35 Sur 0 1005.5 -- 42
2020-08-28 13:00:00 32.3 12 Sur 26 Sudoeste 0 1006.4 -- 43
2020-08-28 12:00:00 30.5 12 Sudoeste 24 Sur 0 1007.2 -- 53
2020-08-28 11:00:00 29.2 8 Sudoeste 15 Sudoeste 0 1007.3 -- 50
2020-08-28 10:00:00 26 4 Sudoeste 11 Sudoeste 0 1007.5 -- 79
2020-08-28 09:00:00 22.7 7 Oeste 12 Oeste 0 1007.9 -- 91
2020-08-28 08:00:00 21.5 4 Oeste 8 Oeste 0 1007.9 -- 93
2020-08-28 07:00:00 22.1 4 Oeste 9 Oeste 0 1007.9 -- 93
2020-08-28 06:00:00 21.7 7 Sudoeste 10 Oeste 0 1008.3 -- 91
2020-08-28 05:00:00 21.7 5 Sudoeste 9 Sudoeste 0 1008.8 -- 89
2020-08-28 04:00:00 22.1 3 Sudoeste 7 Sudoeste 0 1009.6 -- 87
2020-08-28 03:00:00 22.5 3 Sur 6 Sudoeste 0 1010.3 -- 81
2020-08-28 02:00:00 24 5 Sudoeste 10 Oeste 0 1011 -- 77
2020-08-28 01:00:00 25.9 4 Oeste 9 Noroeste 0 1011.2 -- 79
2020-08-28 00:00:00 26.8 3 Sur 22 Sur 0 1011.6 -- 70
2020-08-27 23:00:00 27.5 9 Sudoeste 26 Sudoeste 0 1011.5 -- 67
2020-08-27 22:00:00 27.5 9 Sudoeste 23 Oeste 0 1011.3 -- 65
2020-08-27 21:00:00 27.8 13 Sudoeste 31 Oeste 0 1011.3 -- 68
2020-08-27 20:00:00 29.8 16 Sudoeste 29 Sudoeste 0 1011.3 -- 61
2020-08-27 19:00:00 31.5 13 Sudoeste 34 Sur 0 1012 -- 55
2020-08-27 18:00:00 32.5 12 Sudoeste 32 Sudoeste 0 1012.8 -- 51
2020-08-27 17:00:00 32.9 20 Sur 40 Sur 0 1012.9 -- 50
2020-08-27 16:00:00 33.6 18 Sur 33 Sur 0 1013.5 -- 45
2020-08-27 15:00:00 33.4 17 Sudoeste 35 Sudoeste 0 1014.4 -- 41
2020-08-27 14:00:00 34 17 Sur 36 Sur 0 1014.8 -- 35
2020-08-27 13:00:00 34.2 13 Sur 24 Sudoeste 0 1015.4 -- 31
2020-08-27 12:00:00 32.8 6 Sur 15 Oeste 0 1015.9 -- 31
2020-08-27 11:00:00 30.5 6 Sudoeste 14 Sur 0 1015.7 -- 42
2020-08-27 10:00:00 26.8 5 Oeste 11 Oeste 0 1015.6 -- 69
2020-08-27 09:00:00 22 8 Sudoeste 12 Sudoeste 0 1015.6 -- 79
2020-08-27 08:00:00 20.2 9 Sudoeste 12 Sudoeste 0 1015.7 -- 83
2020-08-27 07:00:00 20.6 8 Sudoeste 10 Oeste 0 1015.5 -- 85
2020-08-27 06:00:00 20.8 9 Sudoeste 11 Sudoeste 0 1015.6 -- 85
2020-08-27 05:00:00 21.2 8 Sudoeste 10 Sudoeste 0 1015.8 -- 85
2020-08-27 04:00:00 22.1 6 Sudoeste 8 Sudoeste 0 1016.1 -- 85
2020-08-27 03:00:00 23.1 3 Sudoeste 8 Sur 0 1016.5 -- 83
2020-08-27 02:00:00 24.4 2 Sudeste 8 Sur 0 1016.7 -- 77
2020-08-27 01:00:00 26.1 2 Oeste 21 Sudoeste 0 1016.7 -- 69
2020-08-27 00:00:00 26.6 9 Sudoeste 21 Sudoeste 0 1016.3 -- 63
2020-08-26 23:00:00 26.6 9 Sudoeste 26 Sur 0 1016 -- 68
2020-08-26 22:00:00 27 6 Sudoeste 21 Sur 0 1015.5 -- 74
2020-08-26 21:00:00 28.1 10 Sudoeste 26 Sudoeste 0 1015.2 -- 68
2020-08-26 20:00:00 30.2 11 Sudoeste 25 Sur 0 1015.2 -- 57
2020-08-26 19:00:00 32.7 11 Sur 24 Sur 0 1015.4 -- 51
2020-08-26 18:00:00 33.8 11 Sudeste 26 Sur 0 1015.6 -- 48
2020-08-26 17:00:00 34.3 16 Sudeste 27 Sur 0 1015.8 -- 45
2020-08-26 16:00:00 34.3 12 Sudeste 26 Sudeste 0 1016.2 -- 46
2020-08-26 15:00:00 34.7 12 Sudeste 24 Sudeste 0 1016.6 -- 43
2020-08-26 14:00:00 33.5 12 Sudeste 26 Sudeste 0 1016.9 -- 49
2020-08-26 13:00:00 32.8 10 Sudeste 23 Sudeste 0 1017.2 -- 51
2020-08-26 12:00:00 32.4 9 Sudeste 21 Sudeste 0 1017.2 -- 55
2020-08-26 11:00:00 30.6 5 Sur 10 Sudeste 0 1016.9 -- 58
2020-08-26 10:00:00 26.6 3 Sudoeste 10 Sudoeste 0 1016.7 -- 77
2020-08-26 09:00:00 21.2 7 Sudoeste 10 Sudoeste 0 1016.5 -- 88
2020-08-26 08:00:00 20 8 Sudoeste 10 Sudoeste 0 1015.9 -- 89
2020-08-26 07:00:00 20.4 8 Sudoeste 11 Sudoeste 0 1015.4 -- 90
2020-08-26 06:00:00 21.7 7 Sudoeste 10 Sudoeste 0 1015.2 -- 92
2020-08-26 05:00:00 22.7 6 Sudoeste 8 Sudoeste 0 1015.5 -- 91
2020-08-26 04:00:00 24 3 Sur 4 Sudoeste 0 1015.5 -- 87
2020-08-26 03:00:00 25.5 3 Oeste 10 Sudoeste 0 1015.8 -- 84
2020-08-26 02:00:00 25.9 6 Oeste 14 Sudoeste 0 1015.7 -- 85
2020-08-26 01:00:00 25.9 6 Sudoeste 15 Sudoeste 0 1015.5 -- 85
2020-08-26 00:00:00 26.1 5 Sudoeste 19 Sudoeste 0 1015 -- 84
2020-08-25 23:00:00 26.2 8 Sudoeste 24 Sudoeste 0 1014.4 -- 83
2020-08-25 22:00:00 26.6 10 Sudoeste 29 Sudoeste 0 1013.7 -- 80
2020-08-25 21:00:00 27.3 14 Sudoeste 31 Sur 0 1013.1 -- 72
2020-08-25 20:00:00 29.5 12 Sudoeste 32 Sudoeste 0 1012.9 -- 59
2020-08-25 19:00:00 31.3 12 Sur 32 Sudoeste 0 1013.3 -- 51
2020-08-25 18:00:00 32.4 13 Sur 31 Sudoeste 0 1013.3 -- 45
2020-08-25 17:00:00 32.6 16 Sudoeste 36 Sudoeste 0 1013.5 -- 41
2020-08-25 16:00:00 33.9 13 Sur 33 Sudoeste 0 1013.9 -- 40
2020-08-25 15:00:00 33.8 14 Sur 30 Sur 0 1014.3 -- 35
2020-08-25 14:00:00 33.7 15 Sur 30 Sudoeste 0 1014.5 -- 35
2020-08-25 13:00:00 32.5 14 Sur 28 Sur 0 1014.7 -- 43
2020-08-25 12:00:00 30.9 13 Sur 31 Sur 0 1014.8 -- 50
2020-08-25 11:00:00 29.9 12 Sur 23 Sudeste 0 1014.7 -- 56
2020-08-25 10:00:00 27.1 2 Sudeste 10 Oeste 0 1014.6 -- 68
2020-08-25 09:00:00 22.7 7 Sudoeste 12 Oeste 0 1014.7 -- 80
2020-08-25 08:00:00 21.4 7 Oeste 11 Oeste 0 1014.1 -- 86
2020-08-25 07:00:00 22 7 Oeste 13 Oeste 0 1013.8 -- 90
2020-08-25 06:00:00 22.1 0 Calma 6 Sur 0 1013.9 -- 86
2020-08-25 05:00:00 23.1 2 Sur 7 Sudoeste 0 1014.2 -- 84
2020-08-25 04:00:00 23.8 3 Sudoeste 14 Oeste 0 1014.3 -- 81
2020-08-25 03:00:00 24.4 6 Sudoeste 14 Sudoeste 0 1014.4 -- 80
2020-08-25 02:00:00 24.8 6 Sudoeste 13 Sudoeste 0 1014.6 -- 78
2020-08-25 01:00:00 25.3 6 Sudoeste 15 Sudoeste 0 1014.7 -- 75
2020-08-25 00:00:00 25.6 9 Sudoeste 19 Sudoeste 0 1014.7 -- 73
2020-08-24 23:00:00 25.8 8 Sudoeste 19 Sur 0 1014.4 -- 71
2020-08-24 22:00:00 26.2 9 Sur 24 Sur 0 1013.7 -- 71
2020-08-24 21:00:00 27 9 Sur 25 Sur 0 1013.4 -- 65
2020-08-24 20:00:00 29.3 11 Sur 26 Sur 0 1013.5 -- 56
2020-08-24 19:00:00 30.7 13 Sur 26 Sur 0 1013.9 -- 52
2020-08-24 18:00:00 32.5 12 Sur 28 Sur 0 1014.1 -- 46
2020-08-24 17:00:00 32.9 13 Sur 27 Sur 0 1014.6 -- 47
2020-08-24 16:00:00 33.1 15 Sur 31 Sur 0 1015.1 -- 46
2020-08-24 15:00:00 33 15 Sur 30 Sudeste 0 1015.2 -- 46
2020-08-24 14:00:00 32.1 15 Sur 31 Sur 0 1015.7 -- 47
2020-08-24 13:00:00 32.6 15 Sur 28 Sur 0 1016.4 -- 45
2020-08-24 12:00:00 31.4 12 Sur 23 Sudeste 0 1016.6 -- 50
2020-08-24 11:00:00 28.7 10 Sudeste 19 Sur 0 1016.2 -- 60
2020-08-24 10:00:00 26.1 0 Calma 7 Sudoeste 0 1016.1 -- 77
2020-08-24 09:00:00 23.6 5 Sudoeste 9 Sudoeste 0 1015.7 -- 89
2020-08-24 08:00:00 22.3 6 Sudoeste 10 Sudoeste 0 1015.4 -- 91
2020-08-24 07:00:00 22.4 7 Sudoeste 10 Sudoeste 0 1015.1 -- 91
2020-08-24 06:00:00 22.9 6 Oeste 10 Oeste 0 1015.1 -- 90
2020-08-24 05:00:00 23.1 6 Sudoeste 8 Sudoeste 0 1015.2 -- 89
2020-08-24 04:00:00 23.4 5 Sudoeste 8 Oeste 0 1015.4 -- 89
2020-08-24 03:00:00 23.5 3 Oeste 4 Oeste 0 1015.5 -- 87
2020-08-24 02:00:00 24.1 4 Oeste 7 Oeste 0 1016 -- 86
2020-08-24 01:00:00 24.3 3 Sudoeste 5 Sudoeste 0 1016 -- 85
2020-08-24 00:00:00 25.1 4 Sur 5 Sur 0 1016.3 -- 82
2020-08-23 23:00:00 26 3 Sur 10 Sudeste 0 1016.4 -- 79
2020-08-23 22:00:00 26.7 6 Sudeste 16 Sudeste 0 1016 -- 74
2020-08-23 21:00:00 27.6 9 Sur 21 Sudeste 0 1015.6 -- 71
2020-08-23 20:00:00 28.7 10 Sur 22 Sudeste 0 1015.8 -- 66
2020-08-23 19:00:00 28.6 8 Sudeste 25 Este 0 1016 -- 67
2020-08-23 18:00:00 30 11 Este 27 Sudeste 0 1016.3 -- 63
2020-08-23 17:00:00 29.3 10 Sudeste 29 Este 0 1016.8 -- 65
2020-08-23 16:00:00 31.4 12 Sudeste 29 Sudeste 0 1017.3 -- 58
2020-08-23 15:00:00 31.2 14 Este 27 Este 0 1017.6 -- 60
2020-08-23 14:00:00 30.8 12 Este 24 Este 0 1018 -- 62
2020-08-23 13:00:00 31 12 Este 21 Nordeste 0 1018.4 -- 62
2020-08-23 12:00:00 30.8 9 Nordeste 17 Nordeste 0 1018.4 -- 60
2020-08-23 11:00:00 30.7 6 Este 12 Nordeste 0 1018.3 -- 61
2020-08-23 10:00:00 29.4 4 Este 8 Nordeste 0 1018.2 -- 68
2020-08-23 09:00:00 26.9 0 Calma 9 Este 0 1018.5 -- 82
2020-08-23 08:00:00 26.6 4 Este 16 Norte 0 1018 -- 83
2020-08-23 07:00:00 26.5 8 Norte 19 Norte 0 1017.4 -- 84
2020-08-23 06:00:00 26.5 12 Norte 22 Nordeste 0 1017.3 -- 85
2020-08-23 05:00:00 26.4 10 Norte 18 Noroeste 0 1017.2 -- 87
2020-08-23 04:00:00 26.1 8 Norte 15 Norte 0 1017.2 -- 88
2020-08-23 03:00:00 26 4 Norte 12 Noroeste 0 1017.3 -- 87
2020-08-23 02:00:00 25.8 3 Noroeste 8 Noroeste 0 1017.7 -- 84
2020-08-23 01:00:00 26.5 5 Norte 13 Norte 0 1018 -- 85
2020-08-23 00:00:00 26.6 6 Norte 11 Norte 0 1018.1 -- 83
2020-08-22 23:00:00 26.9 6 Norte 14 Norte 0 1017.8 -- 82
2020-08-22 22:00:00 27.3 4 Nordeste 14 Nordeste 0 1017 -- 80
2020-08-22 21:00:00 28.2 8 Norte 15 Este 0 1016.6 -- 71
2020-08-22 20:00:00 29.5 8 Nordeste 23 Nordeste 0 1016.2 -- 67
2020-08-22 19:00:00 30.6 14 Nordeste 27 Nordeste 0 1016.7 -- 62
2020-08-22 18:00:00 32 13 Norte 25 Norte 0 1017 -- 55
2020-08-22 17:00:00 32.6 14 Norte 31 Norte 0 1017.2 -- 53
2020-08-22 16:00:00 32.8 16 Norte 31 Norte 0 1017.7 -- 52
2020-08-22 15:00:00 33.3 14 Norte 33 Norte 0 1017.9 -- 50
2020-08-22 14:00:00 32.2 16 Norte 31 Norte 0 1018.1 -- 53
2020-08-22 13:00:00 31.9 16 Norte 32 Noroeste 0 1018.5 -- 60
2020-08-22 12:00:00 30.4 19 Noroeste 32 Noroeste 0 1018.4 -- 67
2020-08-22 11:00:00 28.8 15 Noroeste 31 Noroeste 0 1017.5 -- 74
2020-08-22 10:00:00 28 13 Noroeste 32 Norte 0 1016.9 -- 78
2020-08-22 09:00:00 26.5 13 Noroeste 30 Noroeste 0 1016 -- 83
2020-08-22 08:00:00 25.6 16 Noroeste 33 Noroeste 0 1015.2 -- 89
2020-08-22 07:00:00 24.2 6 Sudoeste 12 Oeste 0 1014.7 -- 93
2020-08-22 06:00:00 23.7 4 Oeste 9 Oeste 0 1014.4 -- 93
2020-08-22 05:00:00 23.2 3 Oeste 8 Sudoeste 0 1013.9 -- 90
2020-08-22 04:00:00 23.9 4 Sudoeste 5 Sudoeste 0 1013.9 -- 89
2020-08-22 03:00:00 24.7 4 Oeste 6 Oeste 0 1014 -- 87
2020-08-22 02:00:00 25.3 0 Calma 6 Noroeste 0 1014.1 -- 83
2020-08-22 01:00:00 26.4 3 Oeste 18 Sudoeste 0 1013.8 -- 82
2020-08-22 00:00:00 27 4 Sudoeste 15 Sudoeste 0 1013.3 -- 82